Time;durP1;ratioP1;P1;durP2;ratioP2;P2;SDS_P1;SDS_P2;PMS_P1;PMS_P2;Temp;Humidity;BMP_temperature;BMP_pressure;BME280_temperature;BME280_humidity;BME280_pressure;Samples;Min_cycle;Max_cycle;Signal;HPM_P1;HPM_P2
2022/03/19 00:01:27;;;;;;;23.10;7.03;;;;;;;6.76;83.67;104560.13;5012905;28;20058;-53
2022/03/19 00:03:52;;;;;;;14.73;6.22;;;;;;;6.75;83.67;104557.44;5005313;28;20092;-56
2022/03/19 00:06:17;;;;;;;21.30;7.25;;;;;;;6.76;83.47;104561.84;4986417;28;20053;-52
2022/03/19 00:08:43;;;;;;;20.25;6.32;;;;;;;6.70;83.83;104559.88;5005365;28;20037;-53
2022/03/19 00:11:08;;;;;;;27.40;7.00;;;;;;;6.70;83.59;104552.00;5006162;28;20069;-51
2022/03/19 00:13:34;;;;;;;15.77;6.30;;;;;;;6.68;83.53;104548.41;4987514;28;20111;-52
2022/03/19 00:15:59;;;;;;;23.35;6.78;;;;;;;6.62;83.82;104550.81;5006640;28;20057;-51
2022/03/19 00:18:24;;;;;;;18.27;6.15;;;;;;;6.64;83.75;104557.88;5008589;28;20021;-54
2022/03/19 00:20:50;;;;;;;16.10;5.80;;;;;;;6.58;83.94;104557.63;4991719;28;20041;-51
2022/03/19 00:23:15;;;;;;;23.15;7.43;;;;;;;6.57;83.83;104561.94;5008410;28;20018;-53
2022/03/19 00:25:41;;;;;;;24.40;6.80;;;;;;;6.57;83.93;104561.94;5009142;28;20025;-51
2022/03/19 00:28:07;;;;;;;17.92;6.43;;;;;;;6.56;83.57;104565.41;5008756;28;20404;-52
2022/03/19 00:30:33;;;;;;;21.98;6.28;;;;;;;6.57;83.86;104571.56;5008339;28;20034;-52
2022/03/19 00:32:58;;;;;;;20.05;5.70;;;;;;;6.51;84.07;104560.81;5009269;28;20018;-54
2022/03/19 00:35:23;;;;;;;25.48;6.15;;;;;;;6.47;84.10;104562.38;4990604;28;20013;-52
2022/03/19 00:37:51;;;;;;;20.90;6.25;;;;;;;6.49;84.07;104565.06;5024589;28;20037;-54
2022/03/19 00:40:22;;;;;;;19.38;6.25;;;;;;;6.45;84.03;104561.44;5028385;28;20034;-49
2022/03/19 00:42:48;;;;;;;16.05;5.68;;;;;;;6.40;84.29;104565.56;5019152;28;20057;-51
2022/03/19 00:45:13;;;;;;;18.15;5.72;;;;;;;6.28;84.78;104571.16;5008408;28;20103;-52
2022/03/19 00:47:38;;;;;;;17.85;6.55;;;;;;;6.25;84.79;104566.69;5013330;28;20174;-51
2022/03/19 00:50:05;;;;;;;29.63;6.45;;;;;;;6.22;85.01;104570.88;5028971;28;20598;-53
2022/03/19 00:52:30;;;;;;;24.08;6.65;;;;;;;6.24;84.99;104567.53;5023444;28;20041;-49
2022/03/19 00:54:56;;;;;;;28.30;6.85;;;;;;;6.18;85.35;104565.50;5007915;28;20528;-54
2022/03/19 00:57:21;;;;;;;21.83;6.90;;;;;;;6.13;85.65;104561.81;5006125;28;20037;-54
2022/03/19 00:59:46;;;;;;;24.05;6.82;;;;;;;6.13;85.65;104567.03;5008634;28;20034;-53
2022/03/19 01:02:11;;;;;;;21.05;6.55;;;;;;;6.12;85.89;104566.97;5006659;28;20062;-54
2022/03/19 01:04:37;;;;;;;22.77;7.47;;;;;;;6.12;86.16;104572.22;5008747;28;20053;-54
2022/03/19 01:07:02;;;;;;;27.35;7.35;;;;;;;6.13;86.07;104569.66;5008018;28;20049;-57
2022/03/19 01:09:28;;;;;;;27.13;7.40;;;;;;;6.11;86.06;104558.22;4990117;28;20029;-49
2022/03/19 01:11:53;;;;;;;17.17;6.40;;;;;;;6.10;85.92;104568.59;5007842;28;20018;-55
2022/03/19 01:14:18;;;;;;;28.80;7.47;;;;;;;6.04;86.08;104566.63;5023919;28;20053;-53
2022/03/19 01:16:44;;;;;;;25.98;8.00;;;;;;;6.00;86.72;104562.03;5027310;28;20036;-53
2022/03/19 01:19:09;;;;;;;28.85;7.85;;;;;;;5.99;86.68;104571.59;5011807;28;20497;-52
2022/03/19 01:21:35;;;;;;;21.42;7.40;;;;;;;5.96;86.52;104561.00;5008759;28;21020;-53
2022/03/19 01:24:02;;;;;;;17.77;6.90;;;;;;;5.93;86.51;104566.13;5006309;28;20559;-51
2022/03/19 01:26:27;;;;;;;15.73;6.82;;;;;;;5.92;86.45;104564.31;5007482;28;20033;-54
2022/03/19 01:28:52;;;;;;;27.17;7.70;;;;;;;5.89;86.39;104558.91;5015448;28;20040;-53
2022/03/19 01:31:19;;;;;;;22.10;7.30;;;;;;;5.90;86.40;104568.59;5027504;28;20025;-51
2022/03/19 01:33:45;;;;;;;27.55;7.63;;;;;;;5.82;86.66;104556.00;4997944;28;20038;-57
2022/03/19 01:36:10;;;;;;;19.95;7.38;;;;;;;5.80;86.70;104568.16;5027032;28;20030;-50
2022/03/19 01:38:37;;;;;;;24.20;7.43;;;;;;;5.77;86.81;104557.53;5026497;28;20384;-52
2022/03/19 01:41:02;;;;;;;21.08;6.97;;;;;;;5.73;86.88;104557.31;5027397;28;20132;-52
2022/03/19 01:43:27;;;;;;;17.10;6.10;;;;;;;5.72;87.03;104556.41;5026483;28;20013;-50
2022/03/19 01:45:53;;;;;;;17.50;6.40;;;;;;;5.72;86.79;104551.19;5011684;28;20045;-53
2022/03/19 01:48:19;;;;;;;23.02;6.38;;;;;;;5.75;86.64;104550.44;5006745;28;20029;-52
2022/03/19 01:50:44;;;;;;;25.20;6.78;;;;;;;5.68;86.98;104551.88;5006740;28;20033;-51
2022/03/19 01:53:10;;;;;;;27.60;7.32;;;;;;;5.68;86.88;104550.16;4990185;28;20017;-53
2022/03/19 01:55:35;;;;;;;25.83;6.90;;;;;;;5.71;86.72;104544.16;5006274;28;20484;-53
2022/03/19 01:58:01;;;;;;;25.30;6.20;;;;;;;5.65;86.46;104539.56;4989721;28;20028;-54
2022/03/19 02:00:27;;;;;;;20.63;5.97;;;;;;;5.68;86.14;104541.41;4987776;28;20124;-52
2022/03/19 02:02:54;;;;;;;22.02;5.88;;;;;;;5.64;86.27;104534.25;5006304;28;20049;-53
2022/03/19 02:05:21;;;;;;;15.35;5.45;;;;;;;5.63;86.08;104540.31;5010502;28;20089;-54
2022/03/19 02:07:47;;;;;;;21.73;6.18;;;;;;;5.60;86.21;104542.78;5026961;28;20041;-53
2022/03/19 02:10:15;;;;;;;32.63;7.75;;;;;;;5.55;86.37;104537.34;5105330;22;20049;-54
2022/03/19 02:12:41;;;;;;;22.77;6.05;;;;;;;5.54;85.96;104533.81;5026510;28;20480;-52
2022/03/19 02:15:09;;;;;;;18.60;5.90;;;;;;;5.57;85.84;104539.19;5025914;28;20565;-54
2022/03/19 02:17:34;;;;;;;21.27;6.38;;;;;;;5.50;86.19;104539.72;5024397;28;20053;-53
2022/03/19 02:20:01;;;;;;;20.00;6.05;;;;;;;5.47;85.80;104528.19;5025835;28;20052;-54
2022/03/19 02:22:27;;;;;;;30.45;5.80;;;;;;;5.44;86.03;104528.97;5025714;28;20474;-52
2022/03/19 02:27:37;;;;;;;25.98;5.80;;;;;;;5.36;86.03;104525.09;5041028;28;20064;-54
2022/03/19 02:30:05;;;;;;;27.08;7.43;;;;;;;5.36;86.09;104532.94;5046375;28;20491;-53
2022/03/19 02:32:30;;;;;;;20.15;5.43;;;;;;;5.30;85.94;104520.47;5034452;28;20118;-53
2022/03/19 02:34:55;;;;;;;19.42;6.00;;;;;;;5.30;85.91;104523.97;5043250;28;20483;-51
2022/03/19 02:37:21;;;;;;;28.52;5.65;;;;;;;5.34;85.67;104518.88;5044748;28;20037;-53
2022/03/19 02:39:47;;;;;;;19.58;5.47;;;;;;;5.37;85.42;104522.56;5030458;28;20029;-53
2022/03/19 02:42:16;;;;;;;20.80;4.95;;;;;;;5.37;85.24;104508.56;5025802;28;20551;-53
2022/03/19 02:44:41;;;;;;;26.88;6.07;;;;;;;5.35;85.09;104512.81;5025205;28;20036;-54
2022/03/19 02:47:07;;;;;;;18.58;5.70;;;;;;;5.41;84.84;104507.88;5024761;28;20025;-55
2022/03/19 02:49:33;;;;;;;24.73;5.80;;;;;;;5.34;84.92;104505.81;5025717;28;20155;-52
2022/03/19 02:51:58;;;;;;;26.25;5.70;;;;;;;5.31;84.78;104504.88;5025598;28;20033;-53
2022/03/19 02:54:26;;;;;;;14.50;5.00;;;;;;;5.26;84.62;104497.59;5024687;28;20029;-52
2022/03/19 02:56:52;;;;;;;20.58;5.28;;;;;;;5.26;85.01;104492.38;5025395;28;20380;-50
2022/03/19 02:59:22;;;;;;;21.42;4.97;;;;;;;5.24;84.86;104492.28;5024285;28;20082;-52
2022/03/19 03:01:49;;;;;;;20.52;5.03;;;;;;;5.25;84.49;104491.50;5025049;28;20036;-54
2022/03/19 03:04:14;;;;;;;20.25;5.32;;;;;;;5.20;84.73;104489.50;5023869;28;20519;-50
2022/03/19 03:06:42;;;;;;;23.20;5.05;;;;;;;5.17;84.67;104487.59;5026470;28;20029;-55
2022/03/19 03:09:09;;;;;;;17.92;5.28;;;;;;;5.15;84.77;104490.13;4991572;28;20040;-55
2022/03/19 03:11:36;;;;;;;16.25;4.68;;;;;;;5.11;84.94;104482.06;5003170;28;20085;-53
2022/03/19 03:14:01;;;;;;;20.23;6.25;;;;;;;5.15;84.27;104478.81;5005764;28;20338;-54
2022/03/19 03:16:27;;;;;;;24.30;4.82;;;;;;;5.13;84.58;104483.97;5004545;28;20045;-53
2022/03/19 03:18:54;;;;;;;19.20;5.43;;;;;;;5.09;84.47;104483.72;5004878;28;20028;-52
2022/03/19 03:21:20;;;;;;;17.05;5.07;;;;;;;5.07;84.49;104478.44;5004931;28;20022;-54
2022/03/19 03:23:45;;;;;;;20.88;5.30;;;;;;;5.03;84.52;104474.75;5005031;28;20076;-52
2022/03/19 03:26:11;;;;;;;14.10;4.82;;;;;;;5.06;84.37;104474.91;5003650;28;20044;-54
2022/03/19 03:28:36;;;;;;;18.67;5.70;;;;;;;4.99;84.44;104478.06;5004656;28;20405;-53
2022/03/19 03:31:02;;;;;;;29.25;6.18;;;;;;;4.95;84.51;104472.59;5005624;28;20030;-53
2022/03/19 03:33:27;;;;;;;11.30;5.18;;;;;;;4.96;84.52;104477.03;5004120;28;20115;-54
2022/03/19 03:35:53;;;;;;;13.98;5.10;;;;;;;4.92;84.52;104481.19;5007573;28;20037;-51
2022/03/19 03:38:18;;;;;;;12.60;4.82;;;;;;;4.88;84.57;104480.13;5024818;28;20483;-49
2022/03/19 03:40:44;;;;;;;19.65;5.72;;;;;;;4.83;84.78;104481.66;5022949;28;20483;-53
2022/03/19 03:43:09;;;;;;;23.80;5.80;;;;;;;4.83;84.48;104472.91;5005563;28;20113;-52
2022/03/19 03:45:35;;;;;;;18.55;5.68;;;;;;;4.78;84.67;104478.81;5003471;28;20014;-52
2022/03/19 03:48:00;;;;;;;13.02;5.63;;;;;;;4.68;84.85;104473.94;5005775;28;20440;-55
2022/03/19 03:50:26;;;;;;;18.02;5.68;;;;;;;4.71;85.03;104470.56;5001262;28;20519;-50
2022/03/19 03:52:52;;;;;;;18.73;6.40;;;;;;;4.71;84.99;104466.25;4996075;28;20014;-53
2022/03/19 03:55:17;;;;;;;16.25;5.82;;;;;;;4.68;84.84;104461.78;5002519;28;20026;-53
2022/03/19 03:57:43;;;;;;;23.45;6.35;;;;;;;4.64;85.04;104466.78;5003984;28;20488;-51
2022/03/19 04:00:09;;;;;;;20.27;6.63;;;;;;;4.63;84.85;104468.47;5005134;28;20061;-53
2022/03/19 04:02:35;;;;;;;14.23;5.68;;;;;;;4.67;84.66;104465.19;5004188;28;20399;-52
2022/03/19 04:05:01;;;;;;;28.58;6.10;;;;;;;4.64;84.84;104462.44;5004839;28;20327;-55
2022/03/19 04:07:27;;;;;;;22.08;5.97;;;;;;;4.65;84.48;104465.94;5016614;28;20036;-56
2022/03/19 04:09:53;;;;;;;20.60;6.47;;;;;;;4.64;84.86;104472.00;5030150;28;20049;-55
2022/03/19 04:12:19;;;;;;;21.23;5.90;;;;;;;4.64;84.51;104470.28;5034019;28;20029;-55
2022/03/19 04:14:44;;;;;;;21.42;6.00;;;;;;;4.58;84.62;104469.09;5024480;28;20156;-49
2022/03/19 04:17:10;;;;;;;22.27;6.05;;;;;;;4.55;84.93;104473.31;5005820;28;20032;-53
2022/03/19 04:19:35;;;;;;;16.48;6.13;;;;;;;4.57;84.81;104477.75;5024517;28;20022;-55
2022/03/19 04:22:01;;;;;;;20.00;5.72;;;;;;;4.55;84.60;104467.22;5009100;28;20041;-55
2022/03/19 04:24:26;;;;;;;21.15;6.22;;;;;;;4.50;84.76;104474.81;5023398;28;20064;-53
2022/03/19 04:26:51;;;;;;;28.27;6.38;;;;;;;4.47;84.88;104460.69;5023234;28;20025;-50
2022/03/19 04:29:17;;;;;;;24.13;6.30;;;;;;;4.48;84.90;104463.38;5024013;28;20034;-54
2022/03/19 04:31:42;;;;;;;23.40;6.40;;;;;;;4.46;84.69;104465.03;5016796;28;20037;-52
2022/03/19 04:34:07;;;;;;;17.13;5.55;;;;;;;4.40;84.93;104470.81;5022796;28;20502;-58
2022/03/19 04:36:38;;;;;;;19.13;5.90;;;;;;;4.33;85.23;104470.47;5023708;28;20383;-54
2022/03/19 04:39:05;;;;;;;24.77;6.82;;;;;;;4.35;85.14;104466.19;5018077;28;20132;-51
2022/03/19 04:41:32;;;;;;;21.80;6.68;;;;;;;4.38;85.28;104464.66;5019346;28;20033;-54
2022/03/19 04:43:58;;;;;;;27.80;5.97;;;;;;;4.44;84.89;104466.66;5017136;28;20049;-54
2022/03/19 04:46:24;;;;;;;22.23;6.57;;;;;;;4.40;84.54;104459.50;5018709;28;20459;-52
2022/03/19 04:48:50;;;;;;;24.48;6.65;;;;;;;4.41;84.79;104459.59;5023997;28;20565;-56
2022/03/19 04:51:17;;;;;;;17.70;6.13;;;;;;;4.41;84.42;104453.44;5023132;28;20319;-55
2022/03/19 04:53:49;;;;;;;19.13;6.05;;;;;;;4.37;84.83;104448.91;5012849;28;20036;-51
2022/03/19 04:56:15;;;;;;;21.85;6.28;;;;;;;4.35;84.81;104450.53;5042276;28;20541;-55
2022/03/19 04:58:40;;;;;;;21.13;6.97;;;;;;;4.32;84.62;104456.50;5037677;28;20057;-50
2022/03/19 05:01:06;;;;;;;22.02;6.45;;;;;;;4.28;84.79;104455.44;5005490;28;20071;-53
2022/03/19 05:03:31;;;;;;;27.23;6.82;;;;;;;4.24;84.88;104448.28;5025874;28;20033;-54
2022/03/19 05:05:56;;;;;;;21.52;6.72;;;;;;;4.25;85.27;104442.22;5017730;28;20399;-54
2022/03/19 05:08:22;;;;;;;17.70;6.38;;;;;;;4.23;85.26;104446.50;5009685;28;20032;-53
2022/03/19 05:13:31;;;;;;;22.90;6.82;;;;;;;4.13;85.65;104452.06;5011686;28;20040;-58
2022/03/19 05:15:56;;;;;;;19.95;6.20;;;;;;;4.22;85.57;104447.31;5028048;28;20033;-54
2022/03/19 05:18:23;;;;;;;27.80;7.30;;;;;;;4.19;85.14;104454.97;5026137;28;20030;-53
2022/03/19 05:20:48;;;;;;;22.00;6.88;;;;;;;4.20;85.25;104454.16;5044053;28;20025;-55
2022/03/19 05:23:14;;;;;;;22.25;6.72;;;;;;;4.16;85.60;104455.69;5047074;28;20025;-51
2022/03/19 05:25:39;;;;;;;27.45;6.68;;;;;;;4.22;85.38;104451.63;5029587;28;20037;-55
2022/03/19 05:28:05;;;;;;;19.48;6.75;;;;;;;4.20;85.52;104455.84;5026563;28;20042;-53
2022/03/19 05:30:31;;;;;;;19.83;6.68;;;;;;;4.22;85.40;104454.25;5032470;28;20549;-51
2022/03/19 05:32:56;;;;;;;25.25;7.90;;;;;;;4.18;85.34;104447.94;5045714;28;20071;-52
2022/03/19 05:35:22;;;;;;;25.25;7.30;;;;;;;4.25;85.17;104452.66;5026846;28;20026;-49
2022/03/19 05:37:47;;;;;;;22.08;7.25;;;;;;;4.29;84.95;104457.25;5019989;28;20029;-50
2022/03/19 05:40:13;;;;;;;19.40;8.00;;;;;;;4.26;84.96;104448.34;5015975;28;20022;-53
2022/03/19 05:42:39;;;;;;;23.80;7.78;;;;;;;4.22;85.30;104449.94;5027198;28;20510;-51
2022/03/19 05:45:04;;;;;;;20.50;6.88;;;;;;;4.24;85.20;104450.00;5017461;28;20037;-56
2022/03/19 05:47:30;;;;;;;19.05;7.07;;;;;;;4.23;85.09;104454.31;5017398;28;20195;-52
2022/03/19 05:49:55;;;;;;;17.63;6.75;;;;;;;4.23;85.03;104456.94;5046668;28;20148;-52
2022/03/19 05:52:21;;;;;;;21.02;6.97;;;;;;;4.21;85.11;104463.78;5033633;28;20508;-53
2022/03/19 05:54:46;;;;;;;24.85;8.05;;;;;;;4.19;85.02;104454.06;5022379;28;20387;-54
2022/03/19 05:57:11;;;;;;;22.00;7.72;;;;;;;4.18;85.24;104458.38;5017439;28;20068;-53
2022/03/19 05:59:37;;;;;;;26.85;8.70;;;;;;;4.20;85.34;104454.16;5026677;28;20029;-58
2022/03/19 06:02:05;;;;;;;21.92;7.95;;;;;;;4.17;85.19;104462.75;5023377;28;20044;-55
2022/03/19 06:04:31;;;;;;;24.10;7.47;;;;;;;4.19;85.28;104459.28;5025731;28;20026;-55
2022/03/19 06:06:56;;;;;;;18.73;7.53;;;;;;;4.21;85.53;104461.16;5023262;28;20514;-55
2022/03/19 06:09:22;;;;;;;22.10;8.82;;;;;;;4.19;85.27;104465.44;5026361;28;20487;-51
2022/03/19 06:11:47;;;;;;;15.48;6.80;;;;;;;4.24;85.05;104461.31;5015627;28;20117;-53
2022/03/19 06:14:13;;;;;;;28.52;7.85;;;;;;;4.18;84.96;104458.38;5018680;28;20026;-56
2022/03/19 06:16:38;;;;;;;18.83;7.50;;;;;;;4.25;85.28;104459.63;5016863;28;20426;-55
2022/03/19 06:19:03;;;;;;;24.42;7.28;;;;;;;4.24;85.22;104458.72;5027430;28;20025;-53
2022/03/19 06:21:29;;;;;;;19.95;7.90;;;;;;;4.25;85.01;104463.09;5027396;28;20074;-57
2022/03/19 06:23:55;;;;;;;21.00;7.63;;;;;;;4.23;85.33;104459.53;5027437;28;20031;-55
2022/03/19 06:26:23;;;;;;;21.20;7.60;;;;;;;4.32;84.98;104464.34;5027283;28;20449;-56
2022/03/19 06:28:48;;;;;;;22.85;7.68;;;;;;;4.30;85.15;104464.25;5027460;28;20400;-59
2022/03/19 06:31:13;;;;;;;18.63;7.55;;;;;;;4.39;85.03;104469.03;5024748;28;20026;-59
2022/03/19 06:33:40;;;;;;;16.63;7.82;;;;;;;4.43;85.01;104465.75;5025301;28;20029;-60
2022/03/19 06:38:51;;;;;;;25.27;8.40;;;;;;;4.42;85.27;104460.47;4995043;28;20087;-58
2022/03/19 06:41:17;;;;;;;24.35;7.97;;;;;;;4.46;84.60;104459.81;5026846;28;20041;-56
2022/03/19 06:43:43;;;;;;;26.02;8.57;;;;;;;4.50;84.68;104459.16;5026962;28;20146;-59
2022/03/19 06:46:08;;;;;;;22.17;8.02;;;;;;;4.55;84.35;104460.25;5017912;28;20034;-56
2022/03/19 06:48:34;;;;;;;20.33;7.85;;;;;;;4.60;84.52;104457.88;5016677;28;20338;-55
2022/03/19 06:50:59;;;;;;;23.42;9.57;;;;;;;4.65;84.03;104466.84;5017055;28;20147;-56
2022/03/19 06:53:25;;;;;;;21.55;8.10;;;;;;;4.73;83.87;104454.16;4995345;28;20025;-55
2022/03/19 06:55:51;;;;;;;18.00;8.10;;;;;;;4.83;83.65;104454.59;5019730;28;20116;-59
2022/03/19 06:58:17;;;;;;;26.13;7.65;;;;;;;4.92;83.50;104460.28;5015432;28;20365;-55
2022/03/19 07:00:42;;;;;;;21.55;7.97;;;;;;;4.92;83.50;104455.06;5016924;28;20017;-55
2022/03/19 07:03:08;;;;;;;22.58;8.23;;;;;;;5.00;83.14;104464.16;5015680;28;20468;-60
2022/03/19 07:05:33;;;;;;;22.98;7.18;;;;;;;5.08;82.80;104455.81;5015095;28;20480;-58
2022/03/19 07:07:59;;;;;;;27.80;7.97;;;;;;;5.12;82.99;104458.63;5024847;28;20478;-55
2022/03/19 07:10:25;;;;;;;17.27;7.13;;;;;;;5.23;82.53;104460.84;5017130;28;20038;-56
2022/03/19 07:12:53;;;;;;;18.98;7.07;;;;;;;5.27;82.59;104461.06;5020771;28;20388;-54
2022/03/19 07:15:21;;;;;;;19.15;7.30;;;;;;;5.36;82.33;104462.34;5017305;28;20138;-55
2022/03/19 07:17:46;;;;;;;24.65;7.32;;;;;;;5.36;82.26;104457.97;4998712;28;20044;-56
2022/03/19 07:20:14;;;;;;;19.90;7.45;;;;;;;5.35;82.33;104458.81;5018175;28;20404;-57
2022/03/19 07:22:58;;;;;;;25.13;8.35;;;;;;;5.49;82.15;104458.56;5014712;28;20045;-57
2022/03/19 07:25:28;;;;;;;21.15;7.65;;;;;;;5.52;81.88;104458.69;5013815;28;20116;-55
2022/03/19 07:27:56;;;;;;;17.85;6.93;;;;;;;5.61;81.70;104459.13;5026127;28;20034;-56
2022/03/19 07:30:22;;;;;;;22.73;8.20;;;;;;;5.68;81.37;104461.19;5026251;28;20026;-54
2022/03/19 07:32:47;;;;;;;25.02;7.78;;;;;;;5.67;81.11;104454.19;5024764;28;20148;-58
2022/03/19 07:35:14;;;;;;;26.83;8.18;;;;;;;5.69;81.48;104459.47;5026069;28;20025;-55
2022/03/19 07:37:43;;;;;;;23.20;7.97;;;;;;;5.81;81.11;104451.28;5026126;28;20133;-54
2022/03/19 07:40:10;;;;;;;26.88;7.35;;;;;;;5.88;80.96;104452.44;5026076;28;20060;-56
2022/03/19 07:42:36;;;;;;;27.15;7.35;;;;;;;5.95;80.71;104449.25;5026555;28;20061;-54
2022/03/19 07:45:02;;;;;;;17.20;7.07;;;;;;;6.06;80.28;104450.66;5025924;28;20060;-56
2022/03/19 07:47:31;;;;;;;22.67;6.50;;;;;;;6.18;79.90;104446.78;5025257;28;20549;-55
2022/03/19 07:49:57;;;;;;;25.63;7.53;;;;;;;6.22;79.61;104445.16;5025462;28;20029;-56
2022/03/19 07:52:24;;;;;;;15.55;6.28;;;;;;;6.31;79.28;104445.56;5025519;28;20160;-58
2022/03/19 07:54:50;;;;;;;16.27;6.82;;;;;;;6.41;79.01;104446.88;5026139;28;20029;-56
2022/03/19 07:57:15;;;;;;;14.48;6.18;;;;;;;6.52;78.52;104442.97;5025004;28;20387;-55
2022/03/19 07:59:41;;;;;;;20.38;6.50;;;;;;;6.62;77.45;104438.97;5025107;28;20428;-59
2022/03/19 08:02:06;;;;;;;16.17;5.72;;;;;;;6.70;77.26;104437.59;5007003;28;20061;-61
2022/03/19 08:04:32;;;;;;;19.60;5.90;;;;;;;6.88;76.70;104451.34;5025395;28;20028;-57
2022/03/19 08:06:57;;;;;;;15.35;5.80;;;;;;;6.98;75.93;104448.25;5025550;28;20535;-55
2022/03/19 08:09:23;;;;;;;20.52;6.05;;;;;;;7.06;75.25;104433.75;5025624;28;20068;-55
2022/03/19 08:11:50;;;;;;;17.90;5.40;;;;;;;7.18;75.01;104445.53;5025470;28;20021;-56
2022/03/19 08:14:16;;;;;;;17.73;5.50;;;;;;;7.36;73.40;104436.56;5025359;28;20097;-56
2022/03/19 08:16:42;;;;;;;16.05;4.90;;;;;;;7.44;72.40;104443.03;5025000;28;20037;-57
2022/03/19 08:19:09;;;;;;;16.50;4.93;;;;;;;7.61;72.03;104450.63;5024869;28;20025;-58
2022/03/19 08:21:34;;;;;;;13.60;4.20;;;;;;;7.65;71.45;104442.03;5026468;28;20022;-55
2022/03/19 08:23:59;;;;;;;12.30;4.15;;;;;;;7.82;70.67;104448.78;5025202;28;20553;-57
2022/03/19 08:26:25;;;;;;;16.30;4.60;;;;;;;7.95;70.35;104446.59;5025405;28;20039;-56
2022/03/19 08:28:50;;;;;;;11.77;4.22;;;;;;;8.11;70.23;104449.75;5025373;28;20411;-64
2022/03/19 08:31:15;;;;;;;16.50;5.05;;;;;;;8.19;69.45;104440.41;5024363;28;20237;-52
2022/03/19 08:33:41;;;;;;;18.35;4.80;;;;;;;8.27;69.59;104448.53;5025461;28;20022;-57
2022/03/19 08:36:06;;;;;;;12.50;4.30;;;;;;;8.31;68.55;104450.44;5007894;28;20498;-59
2022/03/19 08:41:15;;;;;;;12.82;4.30;;;;;;;8.47;67.57;104446.59;5029448;28;20141;-56
2022/03/19 08:43:41;;;;;;;13.90;4.35;;;;;;;8.56;67.02;104446.94;5028948;28;20109;-55
2022/03/19 08:46:06;;;;;;;11.40;3.95;;;;;;;8.58;65.77;104444.34;5028942;28;20132;-58
2022/03/19 08:48:32;;;;;;;13.48;3.63;;;;;;;8.73;63.66;104438.66;5029961;28;20425;-58
2022/03/19 08:51:39;;;;;;;14.20;4.32;;;;;;;8.87;63.71;104438.22;5029154;28;20033;-57
2022/03/19 08:53:43;;;;;;;11.50;3.95;;;;;;;8.95;62.26;104427.13;5028708;28;20118;-55
2022/03/19 08:56:08;;;;;;;11.63;3.70;;;;;;;9.10;62.24;104438.94;5029117;28;20495;-58
2022/03/19 08:58:34;;;;;;;10.85;3.70;;;;;;;9.13;63.29;104428.53;5028751;28;20022;-58
2022/03/19 09:00:59;;;;;;;14.88;4.22;;;;;;;9.08;62.52;104425.75;5028250;28;20030;-53
2022/03/19 09:03:26;;;;;;;9.65;3.42;;;;;;;9.19;61.67;104427.81;5028248;28;20049;-55
2022/03/19 09:05:51;;;;;;;9.57;3.17;;;;;;;9.26;62.02;104427.13;5025891;28;20076;-55
2022/03/19 09:08:17;;;;;;;11.95;4.53;;;;;;;9.20;61.83;104429.56;5016931;28;20033;-54
2022/03/19 09:10:42;;;;;;;10.95;3.58;;;;;;;9.32;62.66;104434.31;5019322;28;20038;-51
2022/03/19 09:13:07;;;;;;;10.68;3.38;;;;;;;9.29;61.33;104424.59;5017069;28;20427;-58
2022/03/19 09:15:33;;;;;;;12.43;4.03;;;;;;;9.29;61.68;104428.97;5014123;28;20060;-55
2022/03/19 09:17:59;;;;;;;12.43;3.70;;;;;;;9.30;59.21;104426.38;5027892;28;20037;-57
2022/03/19 09:20:24;;;;;;;11.45;3.28;;;;;;;9.38;57.59;104429.22;5027151;28;20563;-56
2022/03/19 09:22:49;;;;;;;12.45;3.13;;;;;;;9.53;55.17;104420.88;5028249;28;20022;-56
2022/03/19 09:25:15;;;;;;;8.18;2.55;;;;;;;9.53;54.63;104423.53;5027902;28;20494;-58
2022/03/19 09:27:40;;;;;;;9.07;2.80;;;;;;;9.57;53.58;104416.63;5028718;28;20044;-58
2022/03/19 09:30:07;;;;;;;9.70;2.90;;;;;;;9.51;53.03;104414.66;5027630;28;20112;-56
2022/03/19 09:32:33;;;;;;;8.38;2.72;;;;;;;9.59;53.85;104420.16;5027930;28;20033;-58
2022/03/19 09:34:58;;;;;;;7.53;2.85;;;;;;;9.67;52.23;104415.13;5010077;28;20033;-58
2022/03/19 09:37:24;;;;;;;9.30;2.40;;;;;;;9.66;52.68;104413.34;5027995;28;20059;-60
2022/03/19 09:39:49;;;;;;;8.45;3.25;;;;;;;9.70;51.89;104405.53;5024489;28;20042;-61
2022/03/19 09:42:15;;;;;;;7.25;2.90;;;;;;;9.72;51.69;104405.56;5016393;28;20025;-60
2022/03/19 09:44:43;;;;;;;8.15;2.72;;;;;;;9.77;50.91;104411.88;5017690;28;20219;-53
2022/03/19 09:47:08;;;;;;;6.88;2.60;;;;;;;9.71;50.27;104406.44;5015007;28;20071;-52
2022/03/19 09:49:34;;;;;;;5.55;2.50;;;;;;;9.76;50.70;104409.19;4992039;28;20027;-53
2022/03/19 09:52:02;;;;;;;9.52;2.65;;;;;;;9.82;50.60;104404.09;5018271;28;20364;-54
2022/03/19 09:54:28;;;;;;;9.73;2.30;;;;;;;9.94;50.80;104398.28;5016529;28;20025;-55
2022/03/19 09:56:53;;;;;;;10.27;2.90;;;;;;;9.97;51.79;104388.69;5010816;28;20021;-59
2022/03/19 09:59:20;;;;;;;8.68;2.95;;;;;;;9.99;51.37;104391.34;5012897;28;20021;-56
2022/03/19 10:01:46;;;;;;;10.05;2.85;;;;;;;10.15;49.92;104389.13;5015559;28;20021;-60
2022/03/19 10:04:12;;;;;;;8.25;2.97;;;;;;;10.20;49.60;104382.22;5016643;28;20018;-60
2022/03/19 10:09:42;;;;;;;10.85;3.20;;;;;;;10.33;48.63;104373.75;5017389;28;20135;-61
2022/03/19 10:12:13;;;;;;;3.70;2.00;;;;;;;10.38;48.96;104375.63;5000151;28;20052;-61
2022/03/19 10:14:39;;;;;;;7.32;2.75;;;;;;;10.43;49.00;104366.06;5017695;28;20338;-63
2022/03/19 10:17:04;;;;;;;7.72;2.92;;;;;;;10.55;49.41;104368.13;5015431;28;20029;-61
2022/03/19 10:19:30;;;;;;;8.45;2.53;;;;;;;10.59;48.26;104357.69;5016872;28;20560;-54
2022/03/19 10:22:07;;;;;;;9.38;2.78;;;;;;;10.66;46.17;104353.47;5016780;28;20380;-54
2022/03/19 10:24:36;;;;;;;5.95;2.22;;;;;;;10.66;45.21;104360.47;5020257;28;20548;-55
2022/03/19 10:27:01;;;;;;;7.60;2.40;;;;;;;10.77;45.09;104358.09;5018367;28;20026;-60
2022/03/19 10:29:30;;;;;;;8.15;2.53;;;;;;;10.85;45.95;104344.19;5019019;28;20040;-57
2022/03/19 10:32:04;;;;;;;8.13;2.42;;;;;;;11.02;44.93;104340.13;5009177;28;20025;-58
2022/03/19 10:34:30;;;;;;;6.78;2.28;;;;;;;10.91;43.75;104338.16;5006381;28;20438;-57
2022/03/19 10:36:56;;;;;;;7.00;2.25;;;;;;;10.96;43.69;104339.13;5007146;28;20030;-57
2022/03/19 10:39:26;;;;;;;7.28;2.45;;;;;;;11.15;42.75;104318.41;4988974;28;20037;-57
2022/03/19 10:41:53;;;;;;;5.63;1.73;;;;;;;11.23;42.46;104322.06;5015419;28;20029;-58
2022/03/19 10:44:21;;;;;;;7.78;2.00;;;;;;;11.44;41.81;104311.91;5026362;28;20040;-57
2022/03/19 10:46:50;;;;;;;4.35;2.03;;;;;;;11.42;41.98;104313.59;5025558;28;20506;-58
2022/03/19 10:49:18;;;;;;;7.10;2.08;;;;;;;11.51;41.38;104305.88;5026317;28;20176;-57
2022/03/19 10:51:45;;;;;;;10.77;2.20;;;;;;;11.70;42.03;104311.44;5015321;28;20073;-57
2022/03/19 10:54:11;;;;;;;6.65;2.00;;;;;;;11.68;39.65;104300.84;5014767;28;20025;-57
2022/03/19 10:56:37;;;;;;;5.50;1.70;;;;;;;11.80;39.33;104305.47;5022998;28;20021;-58
2022/03/19 10:59:02;;;;;;;6.38;2.20;;;;;;;12.03;39.90;104301.41;5016732;28;20362;-57
2022/03/19 11:01:29;;;;;;;6.85;1.63;;;;;;;12.04;38.21;104292.63;5004513;28;20074;-58
2022/03/19 11:03:55;;;;;;;4.03;1.83;;;;;;;12.25;38.94;104294.72;5006426;28;20479;-58
2022/03/19 11:06:20;;;;;;;3.78;1.80;;;;;;;12.31;39.86;104286.00;5014076;28;20604;-57
2022/03/19 11:08:47;;;;;;;3.60;1.92;;;;;;;12.25;37.82;104278.84;5003645;28;20034;-56
2022/03/19 11:11:22;;;;;;;5.80;1.88;;;;;;;12.47;36.55;104279.19;5010103;28;20065;-56
2022/03/19 11:13:54;;;;;;;8.80;2.00;;;;;;;12.52;38.42;104277.47;5023156;28;20439;-58
2022/03/19 11:16:20;;;;;;;6.25;2.03;;;;;;;12.51;36.79;104271.31;5018787;28;20044;-55
2022/03/19 11:18:47;;;;;;;8.60;2.38;;;;;;;12.63;37.40;104261.72;4994701;28;20325;-58
2022/03/19 11:21:14;;;;;;;5.55;2.15;;;;;;;12.68;37.48;104264.44;4992317;28;20026;-57
2022/03/19 11:23:54;;;;;;;6.97;1.70;;;;;;;12.75;35.69;104259.25;5006876;28;20108;-58
2022/03/19 11:26:24;;;;;;;5.90;1.98;;;;;;;13.02;36.67;104256.88;5005231;28;20033;-59
2022/03/19 11:28:49;;;;;;;;;;;;;;;13.11;35.36;104243.75;5008285;28;20030;-57
2022/03/19 11:31:16;;;;;;;5.50;1.92;;;;;;;13.15;35.95;104249.94;5005124;28;19913;-57
2022/03/19 11:33:42;;;;;;;6.50;2.15;;;;;;;13.35;35.11;104239.56;5024148;28;20116;-57
2022/03/19 11:36:10;;;;;;;3.60;1.70;;;;;;;13.47;34.82;104235.22;5024101;28;20112;-60